sensor_id;sensor_type;location;lat;lon;timestamp;P1;durP1;ratioP1;P2;durP2;ratioP2
5245;SDS011;54412;51.206;6.888;2023-10-19T00:00:40;10.60;;;8.70;;
5245;SDS011;54412;51.206;6.888;2023-10-19T00:03:11;8.17;;;7.47;;
5245;SDS011;54412;51.206;6.888;2023-10-19T00:05:37;10.53;;;7.97;;
5245;SDS011;54412;51.206;6.888;2023-10-19T00:08:04;8.23;;;7.40;;
5245;SDS011;54412;51.206;6.888;2023-10-19T00:10:37;8.27;;;7.40;;
5245;SDS011;54412;51.206;6.888;2023-10-19T00:13:04;10.80;;;8.33;;
5245;SDS011;54412;51.206;6.888;2023-10-19T00:15:34;10.20;;;8.30;;
5245;SDS011;54412;51.206;6.888;2023-10-19T00:18:05;8.87;;;7.83;;
5245;SDS011;54412;51.206;6.888;2023-10-19T00:20:46;9.53;;;8.40;;
5245;SDS011;54412;51.206;6.888;2023-10-19T00:23:21;10.23;;;8.23;;
5245;SDS011;54412;51.206;6.888;2023-10-19T00:25:59;10.40;;;7.13;;
5245;SDS011;54412;51.206;6.888;2023-10-19T00:28:42;11.43;;;8.73;;
5245;SDS011;54412;51.206;6.888;2023-10-19T00:31:10;12.40;;;9.17;;
5245;SDS011;54412;51.206;6.888;2023-10-19T00:33:38;9.70;;;8.73;;
5245;SDS011;54412;51.206;6.888;2023-10-19T00:36:05;10.20;;;9.20;;
5245;SDS011;54412;51.206;6.888;2023-10-19T00:38:38;9.83;;;8.83;;
5245;SDS011;54412;51.206;6.888;2023-10-19T00:41:14;10.47;;;8.60;;
5245;SDS011;54412;51.206;6.888;2023-10-19T00:43:52;10.33;;;9.33;;
5245;SDS011;54412;51.206;6.888;2023-10-19T00:46:35;10.00;;;9.00;;
5245;SDS011;54412;51.206;6.888;2023-10-19T00:49:07;10.60;;;9.50;;
5245;SDS011;54412;51.206;6.888;2023-10-19T00:51:49;10.90;;;9.60;;
5245;SDS011;54412;51.206;6.888;2023-10-19T00:57:16;10.43;;;9.40;;
5245;SDS011;54412;51.206;6.888;2023-10-19T00:59:45;10.00;;;9.10;;
5245;SDS011;54412;51.206;6.888;2023-10-19T01:02:13;11.53;;;10.33;;
5245;SDS011;54412;51.206;6.888;2023-10-19T01:04:50;10.63;;;9.10;;
5245;SDS011;54412;51.206;6.888;2023-10-19T01:07:24;9.70;;;8.70;;
5245;SDS011;54412;51.206;6.888;2023-10-19T01:09:51;10.40;;;9.30;;
5245;SDS011;54412;51.206;6.888;2023-10-19T01:12:33;10.60;;;9.60;;
5245;SDS011;54412;51.206;6.888;2023-10-19T01:17:41;12.70;;;9.70;;
5245;SDS011;54412;51.206;6.888;2023-10-19T01:20:13;10.60;;;9.60;;
5245;SDS011;54412;51.206;6.888;2023-10-19T01:22:59;11.93;;;9.70;;
5245;SDS011;54412;51.206;6.888;2023-10-19T01:28:29;10.90;;;9.80;;
5245;SDS011;54412;51.206;6.888;2023-10-19T01:33:52;17.80;;;10.00;;
5245;SDS011;54412;51.206;6.888;2023-10-19T01:36:22;10.43;;;9.43;;
5245;SDS011;54412;51.206;6.888;2023-10-19T01:38:49;12.67;;;9.10;;
5245;SDS011;54412;51.206;6.888;2023-10-19T01:41:26;10.10;;;9.07;;
5245;SDS011;54412;51.206;6.888;2023-10-19T01:43:53;10.30;;;9.30;;
5245;SDS011;54412;51.206;6.888;2023-10-19T01:46:20;11.80;;;10.00;;
5245;SDS011;54412;51.206;6.888;2023-10-19T01:48:50;10.87;;;9.77;;
5245;SDS011;54412;51.206;6.888;2023-10-19T01:51:24;10.20;;;9.20;;
5245;SDS011;54412;51.206;6.888;2023-10-19T01:53:53;12.00;;;8.97;;
5245;SDS011;54412;51.206;6.888;2023-10-19T01:56:20;10.33;;;9.33;;
5245;SDS011;54412;51.206;6.888;2023-10-19T01:58:47;10.30;;;9.27;;
5245;SDS011;54412;51.206;6.888;2023-10-19T02:01:14;10.00;;;8.60;;
5245;SDS011;54412;51.206;6.888;2023-10-19T02:03:47;11.20;;;9.47;;
5245;SDS011;54412;51.206;6.888;2023-10-19T02:06:18;10.67;;;9.20;;
5245;SDS011;54412;51.206;6.888;2023-10-19T02:09:30;13.20;;;9.60;;
5245;SDS011;54412;51.206;6.888;2023-10-19T02:11:55;11.60;;;7.60;;
5245;SDS011;54412;51.206;6.888;2023-10-19T02:14:22;11.53;;;9.20;;
5245;SDS011;54412;51.206;6.888;2023-10-19T02:16:50;10.73;;;8.70;;
5245;SDS011;54412;51.206;6.888;2023-10-19T02:19:22;13.60;;;9.63;;
5245;SDS011;54412;51.206;6.888;2023-10-19T02:21:56;10.73;;;8.23;;
5245;SDS011;54412;51.206;6.888;2023-10-19T02:24:29;8.67;;;7.77;;
5245;SDS011;54412;51.206;6.888;2023-10-19T02:26:55;10.80;;;8.33;;
5245;SDS011;54412;51.206;6.888;2023-10-19T02:29:22;9.77;;;8.87;;
5245;SDS011;54412;51.206;6.888;2023-10-19T02:31:48;10.13;;;8.30;;
5245;SDS011;54412;51.206;6.888;2023-10-19T02:34:18;9.10;;;8.20;;
5245;SDS011;54412;51.206;6.888;2023-10-19T02:36:44;9.23;;;8.27;;
5245;SDS011;54412;51.206;6.888;2023-10-19T02:39:13;10.03;;;9.00;;
5245;SDS011;54412;51.206;6.888;2023-10-19T02:41:44;8.83;;;8.03;;
5245;SDS011;54412;51.206;6.888;2023-10-19T02:44:14;9.47;;;7.40;;
5245;SDS011;54412;51.206;6.888;2023-10-19T02:46:44;12.13;;;7.27;;
5245;SDS011;54412;51.206;6.888;2023-10-19T02:49:11;8.83;;;7.93;;
5245;SDS011;54412;51.206;6.888;2023-10-19T02:51:42;8.83;;;7.53;;
5245;SDS011;54412;51.206;6.888;2023-10-19T02:54:11;8.27;;;7.37;;
5245;SDS011;54412;51.206;6.888;2023-10-19T02:56:49;7.93;;;7.20;;
5245;SDS011;54412;51.206;6.888;2023-10-19T02:59:18;11.03;;;7.00;;
5245;SDS011;54412;51.206;6.888;2023-10-19T03:01:49;10.10;;;8.13;;
5245;SDS011;54412;51.206;6.888;2023-10-19T03:04:18;7.63;;;6.93;;
5245;SDS011;54412;51.206;6.888;2023-10-19T03:06:45;9.27;;;7.20;;
5245;SDS011;54412;51.206;6.888;2023-10-19T03:09:10;7.60;;;6.70;;
5245;SDS011;54412;51.206;6.888;2023-10-19T03:11:40;10.40;;;6.30;;
5245;SDS011;54412;51.206;6.888;2023-10-19T03:14:08;7.60;;;6.20;;
5245;SDS011;54412;51.206;6.888;2023-10-19T03:16:36;7.33;;;6.63;;
5245;SDS011;54412;51.206;6.888;2023-10-19T03:19:06;8.83;;;6.80;;
5245;SDS011;54412;51.206;6.888;2023-10-19T03:21:32;7.17;;;6.47;;
5245;SDS011;54412;51.206;6.888;2023-10-19T03:24:07;9.13;;;6.13;;
5245;SDS011;54412;51.206;6.888;2023-10-19T03:27:00;7.00;;;5.40;;
5245;SDS011;54412;51.206;6.888;2023-10-19T03:29:42;6.60;;;6.00;;
5245;SDS011;54412;51.206;6.888;2023-10-19T03:32:20;5.77;;;5.13;;
5245;SDS011;54412;51.206;6.888;2023-10-19T03:34:51;6.30;;;5.80;;
5245;SDS011;54412;51.206;6.888;2023-10-19T03:37:20;6.70;;;5.67;;
5245;SDS011;54412;51.206;6.888;2023-10-19T03:39:56;6.30;;;5.80;;
5245;SDS011;54412;51.206;6.888;2023-10-19T03:42:22;6.53;;;6.03;;
5245;SDS011;54412;51.206;6.888;2023-10-19T03:44:52;4.93;;;4.50;;
5245;SDS011;54412;51.206;6.888;2023-10-19T03:47:22;7.60;;;5.60;;
5245;SDS011;54412;51.206;6.888;2023-10-19T03:49:53;5.53;;;5.10;;
5245;SDS011;54412;51.206;6.888;2023-10-19T03:52:19;5.17;;;4.37;;
5245;SDS011;54412;51.206;6.888;2023-10-19T03:54:44;6.47;;;5.00;;
5245;SDS011;54412;51.206;6.888;2023-10-19T03:57:13;5.10;;;4.63;;
5245;SDS011;54412;51.206;6.888;2023-10-19T03:59:44;9.53;;;5.00;;
5245;SDS011;54412;51.206;6.888;2023-10-19T04:02:11;6.90;;;5.17;;
5245;SDS011;54412;51.206;6.888;2023-10-19T04:04:45;7.93;;;4.47;;
5245;SDS011;54412;51.206;6.888;2023-10-19T04:07:15;4.60;;;4.20;;
5245;SDS011;54412;51.206;6.888;2023-10-19T04:09:46;5.20;;;4.33;;
5245;SDS011;54412;51.206;6.888;2023-10-19T04:12:31;4.47;;;4.03;;
5245;SDS011;54412;51.206;6.888;2023-10-19T04:14:58;5.97;;;4.40;;
5245;SDS011;54412;51.206;6.888;2023-10-19T04:17:45;4.77;;;4.20;;
5245;SDS011;54412;51.206;6.888;2023-10-19T04:20:15;4.90;;;4.40;;
5245;SDS011;54412;51.206;6.888;2023-10-19T04:22:45;5.00;;;3.80;;
5245;SDS011;54412;51.206;6.888;2023-10-19T04:25:15;4.40;;;3.53;;
5245;SDS011;54412;51.206;6.888;2023-10-19T04:27:50;4.03;;;3.70;;
5245;SDS011;54412;51.206;6.888;2023-10-19T04:30:16;4.63;;;4.20;;
5245;SDS011;54412;51.206;6.888;2023-10-19T04:32:49;4.10;;;3.70;;
5245;SDS011;54412;51.206;6.888;2023-10-19T04:35:16;4.73;;;4.33;;
5245;SDS011;54412;51.206;6.888;2023-10-19T04:37:53;5.00;;;4.40;;
5245;SDS011;54412;51.206;6.888;2023-10-19T04:40:20;7.10;;;3.97;;
5245;SDS011;54412;51.206;6.888;2023-10-19T04:42:48;3.40;;;3.20;;
5245;SDS011;54412;51.206;6.888;2023-10-19T04:45:16;6.30;;;4.63;;
5245;SDS011;54412;51.206;6.888;2023-10-19T04:47:42;6.37;;;3.90;;
5245;SDS011;54412;51.206;6.888;2023-10-19T04:50:08;4.57;;;3.70;;
5245;SDS011;54412;51.206;6.888;2023-10-19T04:52:36;4.20;;;3.90;;
5245;SDS011;54412;51.206;6.888;2023-10-19T04:55:03;4.43;;;3.10;;
5245;SDS011;54412;51.206;6.888;2023-10-19T04:57:29;4.93;;;4.13;;
5245;SDS011;54412;51.206;6.888;2023-10-19T04:59:55;3.73;;;3.43;;
5245;SDS011;54412;51.206;6.888;2023-10-19T05:02:22;4.70;;;3.40;;
5245;SDS011;54412;51.206;6.888;2023-10-19T05:04:48;6.00;;;3.60;;
5245;SDS011;54412;51.206;6.888;2023-10-19T05:07:14;4.20;;;3.83;;
5245;SDS011;54412;51.206;6.888;2023-10-19T05:09:43;4.97;;;3.27;;
5245;SDS011;54412;51.206;6.888;2023-10-19T05:12:10;4.23;;;3.30;;
5245;SDS011;54412;51.206;6.888;2023-10-19T05:14:37;4.63;;;3.70;;
5245;SDS011;54412;51.206;6.888;2023-10-19T05:17:07;4.10;;;3.60;;
5245;SDS011;54412;51.206;6.888;2023-10-19T05:19:37;5.40;;;3.53;;
5245;SDS011;54412;51.206;6.888;2023-10-19T05:22:07;4.90;;;3.90;;
5245;SDS011;54412;51.206;6.888;2023-10-19T05:24:35;4.63;;;3.53;;
5245;SDS011;54412;51.206;6.888;2023-10-19T05:27:01;4.30;;;3.40;;
5245;SDS011;54412;51.206;6.888;2023-10-19T05:29:27;6.03;;;3.23;;
5245;SDS011;54412;51.206;6.888;2023-10-19T05:31:55;7.23;;;4.43;;
5245;SDS011;54412;51.206;6.888;2023-10-19T05:34:25;3.97;;;3.13;;
5245;SDS011;54412;51.206;6.888;2023-10-19T05:36:52;3.87;;;3.17;;
5245;SDS011;54412;51.206;6.888;2023-10-19T05:39:19;4.80;;;3.50;;
5245;SDS011;54412;51.206;6.888;2023-10-19T05:41:45;3.90;;;3.47;;
5245;SDS011;54412;51.206;6.888;2023-10-19T05:44:12;5.80;;;4.00;;
5245;SDS011;54412;51.206;6.888;2023-10-19T05:46:37;7.80;;;4.50;;
5245;SDS011;54412;51.206;6.888;2023-10-19T05:49:05;3.77;;;3.47;;
5245;SDS011;54412;51.206;6.888;2023-10-19T05:51:31;9.07;;;4.37;;
5245;SDS011;54412;51.206;6.888;2023-10-19T05:53:57;6.23;;;3.20;;
5245;SDS011;54412;51.206;6.888;2023-10-19T05:56:29;8.37;;;4.10;;
5245;SDS011;54412;51.206;6.888;2023-10-19T05:58:56;6.63;;;4.20;;
5245;SDS011;54412;51.206;6.888;2023-10-19T06:01:25;6.53;;;4.23;;
5245;SDS011;54412;51.206;6.888;2023-10-19T06:03:51;5.73;;;4.90;;
5245;SDS011;54412;51.206;6.888;2023-10-19T06:06:17;6.50;;;5.30;;
5245;SDS011;54412;51.206;6.888;2023-10-19T06:08:44;4.80;;;3.83;;
5245;SDS011;54412;51.206;6.888;2023-10-19T06:11:10;6.70;;;4.13;;
5245;SDS011;54412;51.206;6.888;2023-10-19T06:13:36;5.70;;;4.97;;
5245;SDS011;54412;51.206;6.888;2023-10-19T06:16:01;8.27;;;4.80;;
5245;SDS011;54412;51.206;6.888;2023-10-19T06:18:27;6.57;;;4.63;;
5245;SDS011;54412;51.206;6.888;2023-10-19T06:20:56;6.00;;;4.20;;
5245;SDS011;54412;51.206;6.888;2023-10-19T06:23:22;7.17;;;4.90;;
5245;SDS011;54412;51.206;6.888;2023-10-19T06:25:48;7.90;;;3.80;;
5245;SDS011;54412;51.206;6.888;2023-10-19T06:28:16;7.17;;;5.03;;
5245;SDS011;54412;51.206;6.888;2023-10-19T06:30:42;11.03;;;4.80;;
5245;SDS011;54412;51.206;6.888;2023-10-19T06:33:08;5.10;;;4.53;;
5245;SDS011;54412;51.206;6.888;2023-10-19T06:35:34;5.87;;;4.83;;
5245;SDS011;54412;51.206;6.888;2023-10-19T06:38:02;9.40;;;4.90;;
5245;SDS011;54412;51.206;6.888;2023-10-19T06:40:29;5.83;;;5.20;;
5245;SDS011;54412;51.206;6.888;2023-10-19T06:42:56;8.33;;;5.30;;
5245;SDS011;54412;51.206;6.888;2023-10-19T06:45:23;7.73;;;4.97;;
5245;SDS011;54412;51.206;6.888;2023-10-19T06:47:50;8.77;;;5.50;;
5245;SDS011;54412;51.206;6.888;2023-10-19T06:50:18;13.90;;;4.60;;
5245;SDS011;54412;51.206;6.888;2023-10-19T06:52:46;6.63;;;5.40;;
5245;SDS011;54412;51.206;6.888;2023-10-19T06:55:13;14.87;;;5.23;;
5245;SDS011;54412;51.206;6.888;2023-10-19T06:57:51;9.60;;;4.67;;
5245;SDS011;54412;51.206;6.888;2023-10-19T07:00:19;7.30;;;5.20;;
5245;SDS011;54412;51.206;6.888;2023-10-19T07:02:50;8.47;;;5.33;;
5245;SDS011;54412;51.206;6.888;2023-10-19T07:05:17;8.37;;;4.10;;
5245;SDS011;54412;51.206;6.888;2023-10-19T07:07:47;8.93;;;4.70;;
5245;SDS011;54412;51.206;6.888;2023-10-19T07:10:14;8.40;;;5.43;;
5245;SDS011;54412;51.206;6.888;2023-10-19T07:12:42;5.90;;;5.20;;
5245;SDS011;54412;51.206;6.888;2023-10-19T07:15:12;8.20;;;4.93;;
5245;SDS011;54412;51.206;6.888;2023-10-19T07:17:42;8.07;;;6.03;;
5245;SDS011;54412;51.206;6.888;2023-10-19T07:20:09;8.60;;;5.50;;
5245;SDS011;54412;51.206;6.888;2023-10-19T07:22:56;5.80;;;5.20;;
5245;SDS011;54412;51.206;6.888;2023-10-19T07:25:28;9.07;;;5.37;;
5245;SDS011;54412;51.206;6.888;2023-10-19T07:27:54;8.73;;;4.60;;
5245;SDS011;54412;51.206;6.888;2023-10-19T07:30:20;7.33;;;4.50;;
5245;SDS011;54412;51.206;6.888;2023-10-19T07:32:51;5.57;;;4.30;;
5245;SDS011;54412;51.206;6.888;2023-10-19T07:35:24;7.60;;;5.57;;
5245;SDS011;54412;51.206;6.888;2023-10-19T07:37:51;6.53;;;4.57;;
5245;SDS011;54412;51.206;6.888;2023-10-19T07:40:17;7.57;;;5.03;;
5245;SDS011;54412;51.206;6.888;2023-10-19T07:42:44;6.53;;;4.83;;
5245;SDS011;54412;51.206;6.888;2023-10-19T07:45:11;7.87;;;4.83;;
5245;SDS011;54412;51.206;6.888;2023-10-19T07:47:40;6.07;;;5.10;;
5245;SDS011;54412;51.206;6.888;2023-10-19T07:50:10;8.40;;;5.53;;
5245;SDS011;54412;51.206;6.888;2023-10-19T07:52:40;12.57;;;6.53;;
5245;SDS011;54412;51.206;6.888;2023-10-19T07:55:15;8.67;;;6.47;;
5245;SDS011;54412;51.206;6.888;2023-10-19T07:57:42;10.50;;;6.40;;
5245;SDS011;54412;51.206;6.888;2023-10-19T08:00:09;10.33;;;6.77;;
5245;SDS011;54412;51.206;6.888;2023-10-19T08:02:38;9.07;;;6.90;;
5245;SDS011;54412;51.206;6.888;2023-10-19T08:05:06;12.97;;;8.37;;
5245;SDS011;54412;51.206;6.888;2023-10-19T08:07:33;9.13;;;7.00;;
5245;SDS011;54412;51.206;6.888;2023-10-19T08:09:59;9.80;;;6.93;;
5245;SDS011;54412;51.206;6.888;2023-10-19T08:12:27;7.90;;;6.13;;
5245;SDS011;54412;51.206;6.888;2023-10-19T08:14:53;8.97;;;7.20;;
5245;SDS011;54412;51.206;6.888;2023-10-19T08:17:20;9.47;;;7.07;;
5245;SDS011;54412;51.206;6.888;2023-10-19T08:19:47;9.53;;;7.47;;
5245;SDS011;54412;51.206;6.888;2023-10-19T08:22:12;15.57;;;7.97;;
5245;SDS011;54412;51.206;6.888;2023-10-19T08:24:39;10.27;;;8.27;;
5245;SDS011;54412;51.206;6.888;2023-10-19T08:27:08;11.60;;;8.70;;
5245;SDS011;54412;51.206;6.888;2023-10-19T08:29:36;13.50;;;7.80;;
5245;SDS011;54412;51.206;6.888;2023-10-19T08:32:02;8.90;;;7.50;;
5245;SDS011;54412;51.206;6.888;2023-10-19T08:34:28;16.47;;;6.87;;
5245;SDS011;54412;51.206;6.888;2023-10-19T08:36:57;10.50;;;7.03;;
5245;SDS011;54412;51.206;6.888;2023-10-19T08:39:22;9.83;;;6.63;;
5245;SDS011;54412;51.206;6.888;2023-10-19T08:41:49;9.10;;;6.70;;
5245;SDS011;54412;51.206;6.888;2023-10-19T08:44:19;8.60;;;7.03;;
5245;SDS011;54412;51.206;6.888;2023-10-19T08:46:45;8.57;;;6.30;;
5245;SDS011;54412;51.206;6.888;2023-10-19T08:49:12;10.13;;;6.83;;
5245;SDS011;54412;51.206;6.888;2023-10-19T08:51:43;10.80;;;6.10;;
5245;SDS011;54412;51.206;6.888;2023-10-19T08:54:12;10.40;;;6.80;;
5245;SDS011;54412;51.206;6.888;2023-10-19T08:56:39;11.00;;;6.70;;
5245;SDS011;54412;51.206;6.888;2023-10-19T08:59:15;9.33;;;7.10;;
5245;SDS011;54412;51.206;6.888;2023-10-19T09:01:41;15.00;;;6.20;;
5245;SDS011;54412;51.206;6.888;2023-10-19T09:04:09;14.23;;;7.37;;
5245;SDS011;54412;51.206;6.888;2023-10-19T09:06:36;12.27;;;6.47;;
5245;SDS011;54412;51.206;6.888;2023-10-19T09:09:13;10.80;;;6.50;;
5245;SDS011;54412;51.206;6.888;2023-10-19T09:11:42;8.20;;;6.27;;
5245;SDS011;54412;51.206;6.888;2023-10-19T09:14:09;9.83;;;6.50;;
5245;SDS011;54412;51.206;6.888;2023-10-19T09:16:37;16.70;;;6.17;;
5245;SDS011;54412;51.206;6.888;2023-10-19T09:19:41;12.63;;;6.40;;
5245;SDS011;54412;51.206;6.888;2023-10-19T09:22:12;8.30;;;6.33;;
5245;SDS011;54412;51.206;6.888;2023-10-19T09:24:44;8.07;;;5.83;;
5245;SDS011;54412;51.206;6.888;2023-10-19T09:27:18;10.37;;;5.37;;
5245;SDS011;54412;51.206;6.888;2023-10-19T09:29:45;8.20;;;5.43;;
5245;SDS011;54412;51.206;6.888;2023-10-19T09:32:14;9.30;;;4.40;;
5245;SDS011;54412;51.206;6.888;2023-10-19T09:34:40;12.57;;;4.60;;
5245;SDS011;54412;51.206;6.888;2023-10-19T09:37:08;10.50;;;3.90;;
5245;SDS011;54412;51.206;6.888;2023-10-19T09:39:36;5.40;;;3.20;;
5245;SDS011;54412;51.206;6.888;2023-10-19T09:42:02;6.33;;;3.10;;
5245;SDS011;54412;51.206;6.888;2023-10-19T09:44:42;9.20;;;3.30;;
5245;SDS011;54412;51.206;6.888;2023-10-19T09:47:22;7.40;;;3.50;;
5245;SDS011;54412;51.206;6.888;2023-10-19T09:49:59;8.20;;;2.90;;
5245;SDS011;54412;51.206;6.888;2023-10-19T09:52:24;5.50;;;2.97;;
5245;SDS011;54412;51.206;6.888;2023-10-19T09:54:59;9.97;;;3.13;;
5245;SDS011;54412;51.206;6.888;2023-10-19T10:00:29;4.47;;;2.80;;
5245;SDS011;54412;51.206;6.888;2023-10-19T10:02:56;6.43;;;3.47;;
5245;SDS011;54412;51.206;6.888;2023-10-19T10:15:55;5.33;;;2.30;;
5245;SDS011;54412;51.206;6.888;2023-10-19T10:18:26;8.37;;;2.00;;
5245;SDS011;54412;51.206;6.888;2023-10-19T10:21:08;4.30;;;2.30;;
5245;SDS011;54412;51.206;6.888;2023-10-19T10:23:47;9.70;;;2.43;;
5245;SDS011;54412;51.206;6.888;2023-10-19T10:26:18;6.27;;;2.13;;
5245;SDS011;54412;51.206;6.888;2023-10-19T10:29:08;5.47;;;1.83;;
5245;SDS011;54412;51.206;6.888;2023-10-19T10:31:47;4.80;;;1.67;;
5245;SDS011;54412;51.206;6.888;2023-10-19T10:36:59;8.10;;;2.33;;
5245;SDS011;54412;51.206;6.888;2023-10-19T10:39:28;5.60;;;1.77;;
5245;SDS011;54412;51.206;6.888;2023-10-19T10:41:59;9.00;;;1.93;;
5245;SDS011;54412;51.206;6.888;2023-10-19T10:44:37;5.67;;;1.90;;
5245;SDS011;54412;51.206;6.888;2023-10-19T10:47:15;5.43;;;1.57;;
5245;SDS011;54412;51.206;6.888;2023-10-19T10:49:47;7.00;;;1.90;;
5245;SDS011;54412;51.206;6.888;2023-10-19T10:52:24;9.77;;;1.67;;
5245;SDS011;54412;51.206;6.888;2023-10-19T10:55:05;7.37;;;1.97;;
5245;SDS011;54412;51.206;6.888;2023-10-19T10:57:37;6.30;;;2.30;;
5245;SDS011;54412;51.206;6.888;2023-10-19T11:00:08;13.10;;;2.57;;
5245;SDS011;54412;51.206;6.888;2023-10-19T11:02:40;10.70;;;2.37;;
5245;SDS011;54412;51.206;6.888;2023-10-19T11:05:11;6.33;;;1.80;;
5245;SDS011;54412;51.206;6.888;2023-10-19T11:07:39;7.07;;;2.00;;
5245;SDS011;54412;51.206;6.888;2023-10-19T11:10:07;8.40;;;2.20;;
5245;SDS011;54412;51.206;6.888;2023-10-19T11:12:35;6.50;;;2.30;;
5245;SDS011;54412;51.206;6.888;2023-10-19T11:15:02;7.80;;;1.70;;
5245;SDS011;54412;51.206;6.888;2023-10-19T11:17:41;5.27;;;1.83;;
5245;SDS011;54412;51.206;6.888;2023-10-19T11:20:20;11.07;;;2.43;;
5245;SDS011;54412;51.206;6.888;2023-10-19T11:22:48;6.60;;;2.07;;
5245;SDS011;54412;51.206;6.888;2023-10-19T11:25:20;15.83;;;2.60;;
5245;SDS011;54412;51.206;6.888;2023-10-19T11:27:47;9.10;;;2.47;;
5245;SDS011;54412;51.206;6.888;2023-10-19T11:30:14;9.13;;;2.60;;
5245;SDS011;54412;51.206;6.888;2023-10-19T11:33:00;10.33;;;2.53;;
5245;SDS011;54412;51.206;6.888;2023-10-19T11:35:27;8.63;;;2.20;;
5245;SDS011;54412;51.206;6.888;2023-10-19T11:37:56;6.60;;;2.13;;
5245;SDS011;54412;51.206;6.888;2023-10-19T11:40:24;6.47;;;1.50;;
5245;SDS011;54412;51.206;6.888;2023-10-19T11:42:51;5.13;;;1.70;;
5245;SDS011;54412;51.206;6.888;2023-10-19T11:45:21;15.53;;;2.17;;
5245;SDS011;54412;51.206;6.888;2023-10-19T11:47:48;3.43;;;1.40;;
5245;SDS011;54412;51.206;6.888;2023-10-19T11:50:15;4.70;;;1.93;;
5245;SDS011;54412;51.206;6.888;2023-10-19T11:52:43;11.23;;;2.87;;
5245;SDS011;54412;51.206;6.888;2023-10-19T11:55:11;5.30;;;2.27;;
5245;SDS011;54412;51.206;6.888;2023-10-19T11:57:38;8.17;;;1.47;;
5245;SDS011;54412;51.206;6.888;2023-10-19T12:00:08;6.33;;;2.10;;
5245;SDS011;54412;51.206;6.888;2023-10-19T12:02:40;11.57;;;2.70;;
5245;SDS011;54412;51.206;6.888;2023-10-19T12:05:09;6.13;;;1.73;;
5245;SDS011;54412;51.206;6.888;2023-10-19T12:07:38;9.13;;;1.63;;
5245;SDS011;54412;51.206;6.888;2023-10-19T12:10:08;6.83;;;2.00;;
5245;SDS011;54412;51.206;6.888;2023-10-19T12:12:38;11.13;;;2.97;;
5245;SDS011;54412;51.206;6.888;2023-10-19T12:15:04;4.33;;;2.23;;
5245;SDS011;54412;51.206;6.888;2023-10-19T12:17:32;6.43;;;1.87;;
5245;SDS011;54412;51.206;6.888;2023-10-19T12:19:58;6.53;;;2.07;;
5245;SDS011;54412;51.206;6.888;2023-10-19T12:22:24;9.47;;;2.20;;
5245;SDS011;54412;51.206;6.888;2023-10-19T12:24:56;5.97;;;2.67;;
5245;SDS011;54412;51.206;6.888;2023-10-19T12:27:23;7.73;;;2.40;;
5245;SDS011;54412;51.206;6.888;2023-10-19T12:29:49;7.27;;;1.90;;
5245;SDS011;54412;51.206;6.888;2023-10-19T12:32:17;7.00;;;2.33;;
5245;SDS011;54412;51.206;6.888;2023-10-19T12:34:43;11.37;;;2.23;;
5245;SDS011;54412;51.206;6.888;2023-10-19T12:37:09;5.77;;;1.90;;
5245;SDS011;54412;51.206;6.888;2023-10-19T12:39:37;6.70;;;1.60;;
5245;SDS011;54412;51.206;6.888;2023-10-19T12:42:12;13.27;;;2.63;;
5245;SDS011;54412;51.206;6.888;2023-10-19T12:44:39;10.13;;;2.13;;
5245;SDS011;54412;51.206;6.888;2023-10-19T12:47:06;8.10;;;2.40;;
5245;SDS011;54412;51.206;6.888;2023-10-19T12:49:40;9.80;;;2.00;;
5245;SDS011;54412;51.206;6.888;2023-10-19T12:52:09;10.97;;;2.20;;
5245;SDS011;54412;51.206;6.888;2023-10-19T12:54:36;7.10;;;1.70;;
5245;SDS011;54412;51.206;6.888;2023-10-19T12:57:06;6.10;;;2.30;;
5245;SDS011;54412;51.206;6.888;2023-10-19T12:59:35;6.67;;;2.13;;
5245;SDS011;54412;51.206;6.888;2023-10-19T13:02:05;7.67;;;2.20;;
5245;SDS011;54412;51.206;6.888;2023-10-19T13:04:34;4.87;;;2.20;;
5245;SDS011;54412;51.206;6.888;2023-10-19T13:06:59;6.10;;;2.27;;
5245;SDS011;54412;51.206;6.888;2023-10-19T13:09:27;11.63;;;2.80;;
5245;SDS011;54412;51.206;6.888;2023-10-19T13:11:57;8.60;;;2.80;;
5245;SDS011;54412;51.206;6.888;2023-10-19T13:14:24;8.43;;;1.90;;
5245;SDS011;54412;51.206;6.888;2023-10-19T13:16:50;5.53;;;2.10;;
5245;SDS011;54412;51.206;6.888;2023-10-19T13:19:17;10.67;;;2.20;;
5245;SDS011;54412;51.206;6.888;2023-10-19T13:21:46;13.60;;;4.00;;
5245;SDS011;54412;51.206;6.888;2023-10-19T13:24:16;8.10;;;2.00;;
5245;SDS011;54412;51.206;6.888;2023-10-19T13:26:45;11.67;;;3.40;;
5245;SDS011;54412;51.206;6.888;2023-10-19T13:29:14;3.50;;;2.23;;
5245;SDS011;54412;51.206;6.888;2023-10-19T13:31:40;7.93;;;2.03;;
5245;SDS011;54412;51.206;6.888;2023-10-19T13:34:08;6.73;;;2.40;;
5245;SDS011;54412;51.206;6.888;2023-10-19T13:36:35;7.70;;;2.57;;
5245;SDS011;54412;51.206;6.888;2023-10-19T13:39:02;5.07;;;2.13;;
5245;SDS011;54412;51.206;6.888;2023-10-19T13:41:28;5.67;;;2.07;;
5245;SDS011;54412;51.206;6.888;2023-10-19T13:43:54;8.43;;;2.33;;
5245;SDS011;54412;51.206;6.888;2023-10-19T13:46:20;8.90;;;2.63;;
5245;SDS011;54412;51.206;6.888;2023-10-19T13:48:48;8.70;;;2.20;;
5245;SDS011;54412;51.206;6.888;2023-10-19T13:51:17;9.27;;;2.77;;
5245;SDS011;54412;51.206;6.888;2023-10-19T13:53:45;12.20;;;3.03;;
5245;SDS011;54412;51.206;6.888;2023-10-19T13:56:11;10.53;;;2.17;;
5245;SDS011;54412;51.206;6.888;2023-10-19T13:58:37;9.20;;;2.80;;
5245;SDS011;54412;51.206;6.888;2023-10-19T14:01:07;11.00;;;3.20;;
5245;SDS011;54412;51.206;6.888;2023-10-19T14:03:34;7.00;;;2.47;;
5245;SDS011;54412;51.206;6.888;2023-10-19T14:06:02;10.37;;;2.63;;
5245;SDS011;54412;51.206;6.888;2023-10-19T14:08:28;7.40;;;2.40;;
5245;SDS011;54412;51.206;6.888;2023-10-19T14:11:00;8.97;;;2.63;;
5245;SDS011;54412;51.206;6.888;2023-10-19T14:13:27;10.63;;;3.00;;
5245;SDS011;54412;51.206;6.888;2023-10-19T14:15:54;8.40;;;2.50;;
5245;SDS011;54412;51.206;6.888;2023-10-19T14:18:19;10.70;;;2.57;;
5245;SDS011;54412;51.206;6.888;2023-10-19T14:20:46;10.77;;;2.47;;
5245;SDS011;54412;51.206;6.888;2023-10-19T14:23:13;5.97;;;2.60;;
5245;SDS011;54412;51.206;6.888;2023-10-19T14:25:38;9.77;;;2.93;;
5245;SDS011;54412;51.206;6.888;2023-10-19T14:28:05;5.83;;;2.83;;
5245;SDS011;54412;51.206;6.888;2023-10-19T14:30:34;11.30;;;3.20;;
5245;SDS011;54412;51.206;6.888;2023-10-19T14:33:00;9.83;;;2.90;;
5245;SDS011;54412;51.206;6.888;2023-10-19T14:35:27;9.20;;;2.90;;
5245;SDS011;54412;51.206;6.888;2023-10-19T14:37:53;8.83;;;3.23;;
5245;SDS011;54412;51.206;6.888;2023-10-19T14:40:22;7.93;;;3.13;;
5245;SDS011;54412;51.206;6.888;2023-10-19T14:42:50;5.07;;;2.03;;
5245;SDS011;54412;51.206;6.888;2023-10-19T14:45:20;5.80;;;2.63;;
5245;SDS011;54412;51.206;6.888;2023-10-19T14:47:55;13.23;;;3.37;;
5245;SDS011;54412;51.206;6.888;2023-10-19T14:50:23;8.50;;;4.07;;
5245;SDS011;54412;51.206;6.888;2023-10-19T14:52:50;11.53;;;3.20;;
5245;SDS011;54412;51.206;6.888;2023-10-19T14:55:18;10.23;;;3.00;;
5245;SDS011;54412;51.206;6.888;2023-10-19T14:57:45;6.43;;;2.40;;
5245;SDS011;54412;51.206;6.888;2023-10-19T15:00:14;6.40;;;3.20;;
5245;SDS011;54412;51.206;6.888;2023-10-19T15:03:14;8.03;;;2.93;;
5245;SDS011;54412;51.206;6.888;2023-10-19T15:05:41;10.90;;;3.47;;
5245;SDS011;54412;51.206;6.888;2023-10-19T15:08:08;4.77;;;2.67;;
5245;SDS011;54412;51.206;6.888;2023-10-19T15:10:35;14.90;;;3.00;;
5245;SDS011;54412;51.206;6.888;2023-10-19T15:13:07;8.10;;;2.37;;
5245;SDS011;54412;51.206;6.888;2023-10-19T15:15:32;8.30;;;2.50;;
5245;SDS011;54412;51.206;6.888;2023-10-19T15:17:58;12.83;;;3.67;;
5245;SDS011;54412;51.206;6.888;2023-10-19T15:20:24;8.90;;;3.17;;
5245;SDS011;54412;51.206;6.888;2023-10-19T15:22:52;7.77;;;3.00;;
5245;SDS011;54412;51.206;6.888;2023-10-19T15:25:19;9.57;;;2.93;;
5245;SDS011;54412;51.206;6.888;2023-10-19T15:27:46;6.07;;;3.20;;
5245;SDS011;54412;51.206;6.888;2023-10-19T15:30:16;8.60;;;2.97;;
5245;SDS011;54412;51.206;6.888;2023-10-19T15:32:45;8.27;;;2.97;;
5245;SDS011;54412;51.206;6.888;2023-10-19T15:35:16;10.00;;;2.47;;
5245;SDS011;54412;51.206;6.888;2023-10-19T15:37:47;10.93;;;3.13;;
5245;SDS011;54412;51.206;6.888;2023-10-19T15:40:21;8.50;;;3.10;;